createdAt,value
2022-12-31T00:00:29.487Z,82.59
2022-12-31T00:02:56.970Z,82.45
2022-12-31T00:05:27.516Z,82.51
2022-12-31T00:07:54.318Z,82.14
2022-12-31T00:10:24.539Z,82.20
2022-12-31T00:12:54.086Z,82.15
2022-12-31T00:15:23.337Z,82.22
2022-12-31T00:17:50.280Z,81.60
2022-12-31T00:20:17.757Z,82.35
2022-12-31T00:22:47.935Z,82.69
2022-12-31T00:25:21.257Z,82.31
2022-12-31T00:27:52.813Z,80.94
2022-12-31T00:30:20.983Z,81.27
2022-12-31T00:33:00.388Z,81.01
2022-12-31T00:35:31.518Z,80.56
2022-12-31T00:37:58.379Z,80.45
2022-12-31T00:40:25.520Z,80.50
2022-12-31T00:43:02.749Z,80.18
2022-12-31T00:45:34.563Z,80.90
2022-12-31T00:48:04.523Z,79.86
2022-12-31T00:50:34.371Z,80.15
2022-12-31T00:53:04.814Z,79.80
2022-12-31T00:55:31.678Z,79.71
2022-12-31T00:58:04.415Z,79.97
2022-12-31T01:00:40.874Z,79.67
2022-12-31T01:03:15.140Z,79.94
2022-12-31T01:05:43.993Z,80.68
2022-12-31T01:08:13.851Z,80.31
2022-12-31T01:11:13.971Z,80.15
2022-12-31T01:13:46.398Z,80.37
2022-12-31T01:16:17.657Z,80.81
2022-12-31T01:18:53.800Z,81.41
2022-12-31T01:21:23.742Z,82.24
2022-12-31T01:23:50.782Z,82.94
2022-12-31T01:26:26.899Z,82.58
2022-12-31T01:29:03.013Z,81.75
2022-12-31T01:31:33.463Z,81.17
2022-12-31T01:34:08.357Z,80.05
2022-12-31T01:36:36.927Z,81.12
2022-12-31T01:39:06.253Z,80.98
2022-12-31T01:41:42.732Z,81.36
2022-12-31T01:44:25.010Z,82.14
2022-12-31T01:47:01.028Z,81.85
2022-12-31T01:49:45.834Z,81.19
2022-12-31T01:52:32.096Z,81.29
2022-12-31T01:55:13.623Z,81.76
2022-12-31T01:57:44.333Z,80.85
2022-12-31T02:00:14.913Z,81.06
2022-12-31T02:02:58.812Z,81.17
2022-12-31T02:05:40.866Z,80.50
2022-12-31T02:08:22.857Z,80.84
2022-12-31T02:10:52.843Z,80.82
2022-12-31T02:13:19.846Z,80.82
2022-12-31T02:16:24.876Z,80.57
2022-12-31T02:19:17.132Z,80.83
2022-12-31T02:22:01.188Z,81.15
2022-12-31T02:24:47.730Z,80.73
2022-12-31T02:27:41.066Z,80.16
2022-12-31T02:30:14.587Z,80.09
2022-12-31T02:33:24.603Z,80.36
2022-12-31T02:36:03.449Z,81.02
2022-12-31T02:38:34.774Z,81.01
2022-12-31T02:41:02.198Z,81.16
2022-12-31T02:43:29.216Z,80.87
2022-12-31T02:46:11.465Z,80.52
2022-12-31T02:49:06.605Z,80.30
2022-12-31T02:51:58.415Z,79.52
2022-12-31T02:54:48.616Z,79.85
2022-12-31T02:57:30.320Z,79.88
2022-12-31T03:00:31.004Z,79.57
2022-12-31T03:03:00.035Z,79.20
2022-12-31T03:05:33.689Z,79.67
2022-12-31T03:08:04.929Z,79.10
2022-12-31T03:10:35.010Z,79.51
2022-12-31T03:13:02.806Z,79.64
2022-12-31T03:15:39.304Z,79.27
2022-12-31T03:18:16.912Z,79.41
2022-12-31T03:21:10.012Z,80.03
2022-12-31T03:24:05.293Z,80.15
2022-12-31T03:26:32.692Z,81.04
2022-12-31T03:29:00.324Z,80.22
2022-12-31T03:31:27.553Z,79.38
2022-12-31T03:33:59.053Z,78.88
2022-12-31T03:36:26.680Z,79.19
2022-12-31T03:38:57.136Z,79.11
2022-12-31T03:41:27.026Z,79.03
2022-12-31T03:43:56.877Z,79.04
2022-12-31T03:46:23.744Z,79.47
2022-12-31T03:48:53.091Z,79.34
2022-12-31T03:51:19.918Z,79.27
2022-12-31T03:53:46.726Z,79.52
2022-12-31T03:56:16.708Z,79.86
2022-12-31T03:58:46.535Z,79.28
2022-12-31T04:01:16.445Z,79.81
2022-12-31T04:03:52.092Z,79.56
2022-12-31T04:06:24.595Z,78.73
2022-12-31T04:08:52.715Z,79.22
2022-12-31T04:11:25.044Z,79.71
2022-12-31T04:13:54.915Z,79.35
2022-12-31T04:16:22.338Z,79.09
2022-12-31T04:18:54.864Z,78.13
2022-12-31T04:21:34.765Z,77.02
2022-12-31T04:24:03.102Z,77.16
2022-12-31T04:26:35.981Z,76.72
2022-12-31T04:29:02.898Z,77.48
2022-12-31T04:31:31.486Z,77.49
2022-12-31T04:33:59.579Z,77.04
2022-12-31T04:36:29.461Z,77.57
2022-12-31T04:39:02.413Z,77.66
2022-12-31T04:41:31.452Z,77.58
2022-12-31T04:43:59.756Z,77.13
2022-12-31T04:49:13.167Z,76.83
2022-12-31T04:51:44.896Z,75.53
2022-12-31T04:54:26.560Z,76.00
2022-12-31T04:57:02.414Z,76.86
2022-12-31T04:59:32.412Z,77.40
2022-12-31T05:02:01.889Z,77.34
2022-12-31T05:04:28.961Z,77.42
2022-12-31T05:06:58.687Z,76.27
2022-12-31T05:09:34.935Z,76.63
2022-12-31T05:12:01.823Z,77.97
2022-12-31T05:14:28.621Z,77.69
2022-12-31T05:17:04.537Z,77.71
2022-12-31T05:19:31.417Z,78.54
2022-12-31T05:22:21.526Z,79.26
2022-12-31T05:24:48.509Z,79.95
2022-12-31T05:27:15.303Z,78.67
2022-12-31T05:29:53.460Z,79.62
2022-12-31T05:32:23.201Z,79.61
2022-12-31T05:34:50.057Z,80.66
2022-12-31T05:37:16.898Z,81.63
2022-12-31T05:39:46.881Z,80.88
2022-12-31T05:42:16.214Z,81.73
2022-12-31T05:44:43.086Z,80.70
2022-12-31T05:47:10.037Z,79.65
2022-12-31T05:49:45.870Z,80.98
2022-12-31T05:52:12.806Z,79.62
2022-12-31T05:54:39.783Z,78.67
2022-12-31T05:57:08.955Z,79.65
2022-12-31T05:59:36.059Z,80.33
2022-12-31T06:02:02.924Z,80.42
2022-12-31T06:04:31.912Z,81.39
2022-12-31T06:07:01.914Z,81.30
2022-12-31T06:09:28.817Z,81.51
2022-12-31T06:11:55.820Z,81.42
2022-12-31T06:14:22.937Z,82.26
2022-12-31T06:16:51.329Z,81.44
2022-12-31T06:19:18.345Z,81.36
2022-12-31T06:21:45.410Z,79.70
2022-12-31T06:24:12.530Z,79.73
2022-12-31T06:26:39.470Z,80.57
2022-12-31T06:29:12.207Z,79.76
2022-12-31T06:31:41.225Z,80.10
2022-12-31T06:34:08.184Z,80.65
2022-12-31T06:36:39.721Z,79.09
2022-12-31T06:39:09.544Z,79.74
2022-12-31T06:41:36.562Z,79.28
2022-12-31T06:44:03.505Z,79.56
2022-12-31T06:46:30.288Z,79.23
2022-12-31T06:48:57.125Z,80.26
2022-12-31T06:51:25.540Z,81.53
2022-12-31T06:53:52.594Z,82.12
2022-12-31T06:56:33.027Z,80.01
2022-12-31T06:59:01.593Z,80.66
2022-12-31T07:01:36.774Z,80.00
2022-12-31T07:04:29.188Z,79.65
2022-12-31T07:07:17.435Z,81.15
2022-12-31T07:10:22.773Z,79.93
2022-12-31T07:13:23.778Z,80.41
2022-12-31T07:16:05.237Z,80.13
2022-12-31T07:18:43.553Z,81.19
2022-12-31T07:21:17.638Z,80.70
2022-12-31T07:23:47.521Z,79.39
2022-12-31T07:26:31.539Z,80.77
2022-12-31T07:29:15.064Z,80.09
2022-12-31T07:32:09.064Z,79.56
2022-12-31T07:35:04.021Z,80.31
2022-12-31T07:37:57.586Z,79.95
2022-12-31T07:40:57.814Z,81.40
2022-12-31T07:43:50.368Z,78.95
2022-12-31T07:46:43.648Z,78.36
2022-12-31T07:49:12.580Z,78.45
2022-12-31T07:51:46.280Z,77.45
2022-12-31T07:54:16.024Z,77.92
2022-12-31T07:56:44.455Z,77.77
2022-12-31T07:59:24.670Z,78.17
2022-12-31T08:02:03.403Z,76.88
2022-12-31T08:04:53.060Z,76.69
2022-12-31T08:07:57.131Z,76.43
2022-12-31T08:10:39.672Z,76.84
2022-12-31T08:13:10.988Z,77.77
2022-12-31T08:15:41.743Z,77.29
2022-12-31T08:18:17.656Z,76.98
2022-12-31T08:21:12.555Z,75.61
2022-12-31T08:23:48.524Z,74.18
2022-12-31T08:26:37.303Z,74.55
2022-12-31T08:29:22.832Z,74.83
2022-12-31T08:32:17.159Z,74.53
2022-12-31T08:34:55.965Z,75.45
2022-12-31T08:37:51.035Z,74.99
2022-12-31T08:40:45.517Z,73.52
2022-12-31T08:43:19.460Z,73.54
2022-12-31T08:45:51.759Z,73.92
2022-12-31T08:48:23.251Z,74.28
2022-12-31T08:50:50.279Z,74.81
2022-12-31T08:53:17.402Z,74.42
2022-12-31T08:55:46.506Z,73.24
2022-12-31T08:58:28.054Z,73.57
2022-12-31T09:00:59.489Z,72.98
2022-12-31T09:03:50.870Z,71.05
2022-12-31T09:06:41.318Z,69.88
2022-12-31T09:09:26.536Z,70.71
2022-12-31T09:12:36.410Z,71.72
2022-12-31T09:15:14.275Z,71.25
2022-12-31T09:17:52.524Z,72.70
2022-12-31T09:20:44.724Z,71.39
2022-12-31T09:23:13.038Z,70.67
2022-12-31T09:26:04.177Z,69.67
2022-12-31T09:28:43.445Z,69.00
2022-12-31T09:31:30.458Z,69.18
2022-12-31T09:34:09.882Z,70.26
2022-12-31T09:36:54.279Z,68.95
2022-12-31T09:39:46.882Z,68.48
2022-12-31T09:42:44.203Z,69.11
2022-12-31T09:45:38.344Z,71.09
2022-12-31T09:48:28.348Z,69.92
2022-12-31T09:51:25.502Z,70.49
2022-12-31T09:54:28.386Z,70.28
2022-12-31T09:57:18.459Z,71.51
2022-12-31T10:00:08.861Z,70.18
2022-12-31T10:02:49.685Z,70.52
2022-12-31T10:05:52.230Z,67.85
2022-12-31T10:08:51.390Z,68.87
2022-12-31T10:11:58.952Z,68.22
2022-12-31T10:15:25.161Z,69.44
2022-12-31T10:18:44.244Z,69.88
2022-12-31T10:21:47.449Z,70.26
2022-12-31T10:24:32.989Z,69.33
2022-12-31T10:27:27.851Z,67.34
2022-12-31T10:30:14.909Z,67.30
2022-12-31T10:33:02.525Z,66.23
2022-12-31T10:35:54.825Z,65.88
2022-12-31T10:38:58.015Z,67.50
2022-12-31T10:41:55.803Z,66.85
2022-12-31T10:44:46.966Z,67.51
2022-12-31T10:47:22.786Z,66.05
2022-12-31T10:50:34.558Z,65.35
2022-12-31T10:53:24.035Z,67.03
2022-12-31T10:56:25.950Z,65.75
2022-12-31T10:59:11.701Z,68.09
2022-12-31T11:02:16.148Z,66.94
2022-12-31T11:04:58.254Z,66.70
2022-12-31T11:07:44.087Z,66.70
2022-12-31T11:10:41.668Z,66.91
2022-12-31T11:13:34.024Z,68.71
2022-12-31T11:16:24.586Z,68.05
2022-12-31T11:19:06.418Z,68.00
2022-12-31T11:21:52.872Z,65.69
2022-12-31T11:24:24.992Z,65.43
2022-12-31T11:27:12.787Z,67.59
2022-12-31T11:30:03.497Z,67.45
2022-12-31T11:32:56.749Z,66.58
2022-12-31T11:35:43.714Z,65.05
2022-12-31T11:38:26.369Z,65.75
2022-12-31T11:41:31.558Z,67.54
2022-12-31T11:44:19.737Z,65.75
2022-12-31T11:47:02.421Z,64.81
2022-12-31T11:49:29.114Z,64.75
2022-12-31T11:52:21.817Z,65.08
2022-12-31T11:54:52.367Z,67.76
2022-12-31T11:57:36.515Z,66.75
2022-12-31T12:00:20.872Z,66.17
2022-12-31T12:03:05.278Z,64.66
2022-12-31T12:05:37.020Z,66.76
2022-12-31T12:08:22.540Z,66.89
2022-12-31T12:10:56.801Z,64.36
2022-12-31T12:13:27.548Z,66.92
2022-12-31T12:16:04.679Z,66.07
2022-12-31T12:18:38.945Z,64.73
2022-12-31T12:21:12.518Z,65.41
2022-12-31T12:23:40.763Z,63.64
2022-12-31T12:26:29.210Z,63.95
2022-12-31T12:29:17.524Z,67.08
2022-12-31T12:32:20.900Z,64.84
2022-12-31T12:34:58.585Z,65.84
2022-12-31T12:37:35.677Z,67.14
2022-12-31T12:40:09.616Z,66.70
2022-12-31T12:42:36.556Z,66.62
2022-12-31T12:45:09.688Z,66.53
2022-12-31T12:47:37.190Z,65.22
2022-12-31T12:50:05.325Z,66.32
2022-12-31T12:53:12.145Z,66.33
2022-12-31T12:56:23.302Z,66.59
2022-12-31T12:59:24.475Z,67.65
2022-12-31T13:02:08.814Z,66.60
2022-12-31T13:05:07.763Z,68.29
2022-12-31T13:08:04.328Z,67.18
2022-12-31T13:11:01.470Z,67.62
2022-12-31T13:14:00.254Z,67.87
2022-12-31T13:16:39.584Z,66.71
2022-12-31T13:19:23.103Z,66.61
2022-12-31T13:22:16.594Z,66.30
2022-12-31T13:25:31.029Z,66.17
2022-12-31T13:28:05.408Z,67.31
2022-12-31T13:30:43.463Z,68.13
2022-12-31T13:33:18.818Z,68.57
2022-12-31T13:35:51.082Z,68.41
2022-12-31T13:38:21.776Z,68.28
2022-12-31T13:40:55.647Z,67.96
2022-12-31T13:44:05.792Z,68.32
2022-12-31T13:46:47.151Z,68.19
2022-12-31T13:49:21.473Z,68.25
2022-12-31T13:52:18.112Z,68.61
2022-12-31T13:55:04.843Z,68.43
2022-12-31T13:57:52.633Z,68.50
2022-12-31T14:00:31.444Z,68.87
2022-12-31T14:03:24.884Z,68.24
2022-12-31T14:06:00.364Z,68.50
2022-12-31T14:08:28.034Z,68.91
2022-12-31T14:11:09.442Z,68.77
2022-12-31T14:14:13.240Z,68.41
2022-12-31T14:17:20.523Z,69.88
2022-12-31T14:20:02.103Z,69.46
2022-12-31T14:22:38.028Z,69.77
2022-12-31T14:25:22.550Z,70.21
2022-12-31T14:27:52.762Z,69.71
2022-12-31T14:30:25.950Z,69.75
2022-12-31T14:33:30.300Z,69.67
2022-12-31T14:36:21.427Z,70.66
2022-12-31T14:39:20.731Z,70.36
2022-12-31T14:42:06.488Z,70.99
2022-12-31T14:45:05.481Z,71.15
2022-12-31T14:47:47.886Z,70.80
2022-12-31T14:50:21.281Z,69.95
2022-12-31T14:52:51.149Z,70.04
2022-12-31T14:55:29.218Z,70.69
2022-12-31T14:58:27.037Z,71.40
2022-12-31T15:00:59.850Z,71.45
2022-12-31T15:03:47.044Z,71.19
2022-12-31T15:06:23.052Z,70.89
2022-12-31T15:09:38.343Z,70.74
2022-12-31T15:12:07.202Z,71.37
2022-12-31T15:15:02.965Z,71.25
2022-12-31T15:18:14.076Z,71.32
2022-12-31T15:21:01.191Z,71.18
2022-12-31T15:23:47.021Z,71.61
2022-12-31T15:26:24.711Z,71.13
2022-12-31T15:29:21.458Z,70.94
2022-12-31T15:31:50.123Z,70.90
2022-12-31T15:34:39.399Z,71.53
2022-12-31T15:37:26.399Z,72.07
2022-12-31T15:40:09.797Z,72.14
2022-12-31T15:42:58.882Z,72.04
2022-12-31T15:45:37.593Z,71.75
2022-12-31T15:48:14.811Z,71.95
2022-12-31T15:50:49.355Z,71.34
2022-12-31T15:53:28.983Z,71.87
2022-12-31T15:55:58.389Z,72.75
2022-12-31T15:58:35.967Z,72.01
2022-12-31T16:01:13.424Z,72.14
2022-12-31T16:03:46.072Z,71.58
2022-12-31T16:06:15.237Z,72.39
2022-12-31T16:08:46.403Z,71.59
2022-12-31T16:11:13.410Z,72.01
2022-12-31T16:13:44.410Z,72.45
2022-12-31T16:16:28.867Z,72.79
2022-12-31T16:18:58.085Z,73.17
2022-12-31T16:21:36.116Z,73.81
2022-12-31T16:24:25.062Z,73.18
2022-12-31T16:26:59.363Z,73.04
2022-12-31T16:29:31.041Z,73.28
2022-12-31T16:31:58.622Z,73.49
2022-12-31T16:34:29.885Z,73.32
2022-12-31T16:37:02.575Z,73.29
2022-12-31T16:39:45.391Z,72.98
2022-12-31T16:42:20.185Z,73.09
2022-12-31T16:45:33.313Z,73.01
2022-12-31T16:48:17.204Z,72.37
2022-12-31T16:50:54.942Z,72.04
2022-12-31T16:53:30.008Z,71.86
2022-12-31T16:56:09.358Z,71.54
2022-12-31T16:58:44.096Z,71.78
2022-12-31T17:03:47.529Z,71.41
2022-12-31T17:06:20.342Z,71.32
2022-12-31T17:09:00.951Z,71.26
2022-12-31T17:11:33.221Z,71.63
2022-12-31T17:14:09.624Z,71.89
2022-12-31T17:17:03.151Z,71.67
2022-12-31T17:19:39.046Z,72.11
2022-12-31T17:22:36.997Z,72.53
2022-12-31T17:25:07.428Z,71.88
2022-12-31T17:27:39.895Z,71.45
2022-12-31T17:30:37.533Z,71.55
2022-12-31T17:33:13.667Z,72.00
2022-12-31T17:35:45.071Z,72.41
2022-12-31T17:38:28.132Z,72.17
2022-12-31T17:43:40.639Z,72.60
2022-12-31T17:46:16.585Z,72.28
2022-12-31T17:48:49.852Z,72.20
2022-12-31T17:51:24.167Z,72.45
2022-12-31T17:53:51.625Z,72.68
2022-12-31T17:56:19.981Z,73.54
2022-12-31T17:58:51.653Z,72.52
2022-12-31T18:01:21.869Z,73.42
2022-12-31T18:03:51.034Z,74.09
2022-12-31T18:06:19.898Z,73.20
2022-12-31T18:08:49.745Z,73.50
2022-12-31T18:11:22.751Z,74.13
2022-12-31T18:13:50.002Z,74.65
2022-12-31T18:16:17.115Z,75.42
2022-12-31T18:18:45.652Z,75.64
2022-12-31T18:21:43.092Z,75.38
2022-12-31T18:24:24.235Z,75.90
2022-12-31T18:26:52.864Z,76.64
2022-12-31T18:29:20.213Z,77.01
2022-12-31T18:31:49.483Z,77.07
2022-12-31T18:34:27.412Z,77.42
2022-12-31T18:37:02.176Z,78.07
2022-12-31T18:39:29.201Z,77.47
2022-12-31T18:41:58.246Z,77.95
2022-12-31T18:44:27.306Z,77.71
2022-12-31T18:46:54.176Z,77.89
2022-12-31T18:49:24.054Z,78.07
2022-12-31T18:51:54.316Z,77.51
2022-12-31T18:54:21.716Z,77.93
2022-12-31T18:56:53.921Z,78.54
2022-12-31T18:59:26.524Z,78.40
2022-12-31T19:01:58.778Z,78.96
2022-12-31T19:04:28.498Z,79.21
2022-12-31T19:06:59.164Z,78.42
2022-12-31T19:12:16.424Z,79.35
2022-12-31T19:14:49.446Z,79.46
2022-12-31T19:17:19.386Z,79.13
2022-12-31T19:19:46.286Z,77.74
2022-12-31T19:22:16.483Z,78.21
2022-12-31T19:24:45.281Z,78.87
2022-12-31T19:27:17.242Z,79.43
2022-12-31T19:29:45.512Z,79.98
2022-12-31T19:32:12.711Z,80.04
2022-12-31T19:34:53.703Z,79.54
2022-12-31T19:37:20.666Z,79.93
2022-12-31T19:39:49.333Z,80.55
2022-12-31T19:42:17.023Z,80.65
2022-12-31T19:44:46.426Z,81.32
2022-12-31T19:47:15.022Z,81.49
2022-12-31T19:49:41.915Z,81.78
2022-12-31T19:52:08.726Z,81.45
2022-12-31T19:54:37.182Z,81.37
2022-12-31T19:57:29.634Z,81.51
2022-12-31T19:59:58.935Z,81.38
2022-12-31T20:02:31.198Z,81.57
2022-12-31T20:05:01.198Z,80.57
2022-12-31T20:07:37.297Z,80.39
2022-12-31T20:10:08.215Z,80.13
2022-12-31T20:12:42.320Z,80.23
2022-12-31T20:15:12.604Z,80.53
2022-12-31T20:17:46.909Z,78.99
2022-12-31T20:20:14.023Z,78.20
2022-12-31T20:22:50.564Z,77.67
2022-12-31T20:25:17.904Z,77.92
2022-12-31T20:27:47.763Z,77.87
2022-12-31T20:30:16.702Z,77.79
2022-12-31T20:32:52.860Z,78.03
2022-12-31T20:35:20.601Z,78.12
2022-12-31T20:37:51.265Z,78.41
2022-12-31T20:40:18.149Z,78.54
2022-12-31T20:42:44.920Z,78.40
2022-12-31T20:45:12.103Z,78.39
2022-12-31T20:47:44.340Z,78.62
2022-12-31T20:50:12.443Z,79.38
2022-12-31T20:52:41.307Z,79.37
2022-12-31T20:55:13.958Z,79.58
2022-12-31T20:57:44.045Z,79.85
2022-12-31T21:00:16.597Z,80.04
2022-12-31T21:03:03.917Z,80.85
2022-12-31T21:05:40.142Z,80.30
2022-12-31T21:08:07.269Z,80.02
2022-12-31T21:10:36.809Z,80.18
2022-12-31T21:13:06.097Z,79.43
2022-12-31T21:15:34.310Z,80.14
2022-12-31T21:18:01.238Z,78.86
2022-12-31T21:20:28.200Z,78.23
2022-12-31T21:23:01.542Z,79.17
2022-12-31T21:25:28.752Z,80.08
2022-12-31T21:27:55.797Z,80.64
2022-12-31T21:30:29.528Z,81.01
2022-12-31T21:32:56.441Z,81.15
2022-12-31T21:35:48.400Z,82.08
2022-12-31T21:38:15.183Z,82.24
2022-12-31T21:40:42.368Z,81.02
2022-12-31T21:43:12.809Z,81.44
2022-12-31T21:46:01.282Z,82.68
2022-12-31T21:48:28.362Z,80.25
2022-12-31T21:51:10.118Z,78.86
2022-12-31T21:53:37.705Z,79.23
2022-12-31T21:56:12.250Z,80.33
2022-12-31T21:58:47.579Z,80.93
2022-12-31T22:01:38.608Z,82.09
2022-12-31T22:04:07.953Z,82.21
2022-12-31T22:06:46.451Z,82.73
2022-12-31T22:09:13.408Z,82.40
2022-12-31T22:11:42.791Z,82.27
2022-12-31T22:14:15.842Z,81.73
2022-12-31T22:16:46.936Z,81.55
2022-12-31T22:19:17.120Z,82.14
2022-12-31T22:21:44.116Z,82.83
2022-12-31T22:24:13.360Z,83.12
2022-12-31T22:26:46.678Z,82.76
2022-12-31T22:29:13.928Z,82.91
2022-12-31T22:31:44.465Z,83.09
2022-12-31T22:34:11.362Z,83.33
2022-12-31T22:36:38.209Z,83.90
2022-12-31T22:39:05.087Z,83.93
2022-12-31T22:41:32.121Z,84.01
2022-12-31T22:44:04.432Z,84.38
2022-12-31T22:46:36.140Z,84.04
2022-12-31T22:49:07.312Z,83.95
2022-12-31T22:51:56.859Z,84.27
2022-12-31T22:54:31.893Z,83.97
2022-12-31T22:56:58.878Z,83.89
2022-12-31T22:59:25.747Z,83.90
2022-12-31T23:02:16.699Z,83.61
2022-12-31T23:04:49.919Z,83.82
2022-12-31T23:07:19.212Z,83.56
2022-12-31T23:10:04.727Z,84.17
2022-12-31T23:12:31.764Z,84.58
2022-12-31T23:15:17.343Z,84.60
2022-12-31T23:18:07.124Z,85.19
2022-12-31T23:20:52.728Z,84.51
2022-12-31T23:26:02.334Z,84.67
2022-12-31T23:28:29.274Z,84.91
2022-12-31T23:30:56.259Z,84.51
2022-12-31T23:33:26.925Z,84.09
2022-12-31T23:36:12.842Z,84.07
2022-12-31T23:38:39.818Z,84.22
2022-12-31T23:41:14.632Z,83.47
2022-12-31T23:43:47.519Z,84.21
2022-12-31T23:46:16.217Z,85.07
2022-12-31T23:48:43.837Z,84.54
2022-12-31T23:51:16.978Z,84.57
2022-12-31T23:53:43.835Z,84.50
2022-12-31T23:56:23.357Z,84.36
2022-12-31T23:58:55.955Z,84.20
